weather.gov     
National Weather Service

Terminal Aerodrome Forecast
NWS Homepage
This page is being discontinued on March 12, 2014.
The same data is available at this site. Please update your bookmarks.
Thank you, and we apologize for the inconvenience.
Please send an email to SR-SRH.Webmaster@noaa.gov with any concerns.


Current Version
Previous Version:    01  02  03  04  05  06  07  08  09  10  11  12  13  14  
[Printable]
751
FTUS41 KBOX 301728
TAFBDL
TAF
KBDL 301728Z 3018/3124 19010KT P6SM BKN045
     FM311000 20006KT 6SM BR BKN025
     FM311200 20006KT 3SM BR BKN025
     FM311400 20008KT P6SM BKN020
     FM311800 21009KT P6SM BKN045
     FM312200 20007KT 5SM -SHRA OVC090=


751
FTUS41 KBOX 301728
TAFBDL
TAF
KBDL 301728Z 3018/3124 19010KT P6SM BKN045
     FM311000 20006KT 6SM BR BKN025
     FM311200 20006KT 3SM BR BKN025
     FM311400 20008KT P6SM BKN020
     FM311800 21009KT P6SM BKN045
     FM312200 20007KT 5SM -SHRA OVC090=




U.S. Dept. of Commerce
NOAA National Weather Service
1325 East West Highway
Silver Spring, MD 20910
E-mail: w-nws.webmaster@noaa.gov
Page last modified: May 16, 2007
NATIONAL WEATHER SERVICE: for Safety, for Work, for Fun - FOR LIFE